KVBG/VBG METAR and TAF weather

Enter ICAO airport designator
Station Type Date Time Source
KVBG METAR 2020/07/11 02:13 UTC NOAA

KVBG 110213Z AUTO 34006KT 7SM BKN004 13/12 A2999 RMK AO2 VIS 1 1/4 RWY12 BKN V SCT SLP159


Station Type Date Time Source
KVBG Decoded METAR 2020/07/11 02:13 UTC NOAA

Lompoc, Vandenberg Air Force Base, CA, United States (KVBG) 34-43-46N 120-34-36W 121M
Jul 10, 2020 - 10:13 PM EDT / 2020.07.11 0213 UTC
Wind: from the NNW (340 degrees) at 7 MPH (6 KT):0
Visibility: 7 mile(s):0
Sky conditions: mostly cloudy
Temperature: 55 F (13 C)
Dew Point: 53 F (12 C)
Relative Humidity: 93%
Pressure (altimeter): 29.99 in. Hg (1015 hPa)
ob: KVBG 110213Z AUTO 34006KT 7SM BKN004 13/12 A2999 RMK AO2 VIS 1 1/4 RWY12 BKN V SCT SLP159
cycle: 2

Station Type Date Time Source
KVBG TAF 2020/07/10 22:03 UTC NOAA

TAF KVBG 102200Z 1022/1204 31009KT 9999 FEW004 FEW200 QNH3000INS
BECMG 1101/1102 VRB06KT 9999 SCT004 QNH2998INS
BECMG 1103/1104 VRB06KT 9999 OVC004 QNH2996INS
BECMG 1107/1108 VRB06KT 4800 BR OVC003 QNH2997INS
BECMG 1111/1112 VRB06KT 0800 FG VV002 QNH2999INS
BECMG 1113/1114 VRB06KT 4800 BR BKN004 QNH3001INS
BECMG 1114/1115 VRB06KT 9999 NSW SCT004 QNH3003INS
BECMG 1117/1118 31009KT 9999 FEW006 FEW200 QNH3001INS
BECMG 1202/1203 VRB06KT 9999 BKN005 QNH2998INS TX20/1120Z TN10/1114Z LAST NO
AMDS AFT 1100 NEXT 1214

Example: see airport list